sensor_id;sensor_type;location;lat;lon;timestamp;pressure;altitude;pressure_sealevel;temperature;humidity
41712;BME280;27399;51.516;13.670;2023-01-29T00:01:51;101737.50;;;2.18;69.34
41712;BME280;27399;51.516;13.670;2023-01-29T00:04:17;101738.50;;;2.02;69.11
41712;BME280;27399;51.516;13.670;2023-01-29T00:06:42;101747.06;;;1.98;69.62
41712;BME280;27399;51.516;13.670;2023-01-29T00:09:09;101718.22;;;1.81;68.83
41712;BME280;27399;51.516;13.670;2023-01-29T00:11:34;101732.91;;;1.96;68.91
41712;BME280;27399;51.516;13.670;2023-01-29T00:14:00;101736.03;;;1.87;69.99
41712;BME280;27399;51.516;13.670;2023-01-29T00:16:26;101723.03;;;1.90;70.27
41712;BME280;27399;51.516;13.670;2023-01-29T00:18:52;101717.28;;;1.99;68.91
41712;BME280;27399;51.516;13.670;2023-01-29T00:21:19;101722.06;;;1.88;68.22
41712;BME280;27399;51.516;13.670;2023-01-29T00:23:47;101719.50;;;1.72;68.75
41712;BME280;27399;51.516;13.670;2023-01-29T00:26:13;101712.09;;;1.63;69.05
41712;BME280;27399;51.516;13.670;2023-01-29T00:28:39;101717.69;;;1.70;68.90
41712;BME280;27399;51.516;13.670;2023-01-29T00:31:09;101712.53;;;1.54;69.74
41712;BME280;27399;51.516;13.670;2023-01-29T00:33:35;101710.13;;;1.77;69.83
41712;BME280;27399;51.516;13.670;2023-01-29T00:36:03;101718.66;;;1.73;69.44
41712;BME280;27399;51.516;13.670;2023-01-29T00:38:28;101721.25;;;1.71;69.26
41712;BME280;27399;51.516;13.670;2023-01-29T00:40:54;101724.31;;;1.62;70.26
41712;BME280;27399;51.516;13.670;2023-01-29T00:43:38;101726.34;;;1.50;71.12
41712;BME280;27399;51.516;13.670;2023-01-29T00:46:22;101721.41;;;1.56;71.46
41712;BME280;27399;51.516;13.670;2023-01-29T00:48:48;101719.56;;;1.37;70.74
41712;BME280;27399;51.516;13.670;2023-01-29T00:51:13;101720.84;;;1.45;70.64
41712;BME280;27399;51.516;13.670;2023-01-29T00:53:39;101719.13;;;1.46;70.80
41712;BME280;27399;51.516;13.670;2023-01-29T00:56:05;101721.91;;;1.49;72.11
41712;BME280;27399;51.516;13.670;2023-01-29T00:58:31;101724.69;;;1.52;70.92
41712;BME280;27399;51.516;13.670;2023-01-29T01:01:00;101711.63;;;1.35;71.44
41712;BME280;27399;51.516;13.670;2023-01-29T01:03:26;101712.97;;;1.45;71.25
41712;BME280;27399;51.516;13.670;2023-01-29T01:06:05;101711.53;;;1.52;70.63
41712;BME280;27399;51.516;13.670;2023-01-29T01:08:31;101708.00;;;1.33;70.70
41712;BME280;27399;51.516;13.670;2023-01-29T01:11:15;101699.81;;;1.45;70.88
41712;BME280;27399;51.516;13.670;2023-01-29T01:13:41;101701.47;;;1.25;70.45
41712;BME280;27399;51.516;13.670;2023-01-29T01:16:12;101698.31;;;1.32;70.32
41712;BME280;27399;51.516;13.670;2023-01-29T01:18:38;101694.25;;;1.21;70.38
41712;BME280;27399;51.516;13.670;2023-01-29T01:21:04;101697.44;;;0.97;70.99
41712;BME280;27399;51.516;13.670;2023-01-29T01:23:30;101688.22;;;1.05;71.14
41712;BME280;27399;51.516;13.670;2023-01-29T01:25:55;101689.59;;;0.81;71.10
41712;BME280;27399;51.516;13.670;2023-01-29T01:28:21;101670.63;;;0.70;71.43
41712;BME280;27399;51.516;13.670;2023-01-29T01:30:46;101687.28;;;0.87;71.13
41712;BME280;27399;51.516;13.670;2023-01-29T01:33:12;101696.22;;;0.90;71.31
41712;BME280;27399;51.516;13.670;2023-01-29T01:35:38;101691.81;;;1.07;70.73
41712;BME280;27399;51.516;13.670;2023-01-29T01:38:03;101686.09;;;0.98;70.66
41712;BME280;27399;51.516;13.670;2023-01-29T01:40:29;101694.81;;;0.97;70.91
41712;BME280;27399;51.516;13.670;2023-01-29T01:42:58;101689.19;;;0.73;71.18
41712;BME280;27399;51.516;13.670;2023-01-29T01:45:28;101674.13;;;0.87;70.98
41712;BME280;27399;51.516;13.670;2023-01-29T01:50:34;101663.63;;;0.87;70.70
41712;BME280;27399;51.516;13.670;2023-01-29T01:53:09;101673.84;;;0.64;70.43
41712;BME280;27399;51.516;13.670;2023-01-29T01:55:47;101676.00;;;0.71;71.06
41712;BME280;27399;51.516;13.670;2023-01-29T01:58:23;101673.91;;;0.82;70.85
41712;BME280;27399;51.516;13.670;2023-01-29T02:00:51;101671.25;;;0.48;71.08
41712;BME280;27399;51.516;13.670;2023-01-29T02:03:18;101663.50;;;0.67;71.01
41712;BME280;27399;51.516;13.670;2023-01-29T02:06:05;101666.72;;;0.61;70.93
41712;BME280;27399;51.516;13.670;2023-01-29T02:09:14;101664.78;;;0.92;70.63
41712;BME280;27399;51.516;13.670;2023-01-29T02:12:08;101657.13;;;0.97;70.37
41712;BME280;27399;51.516;13.670;2023-01-29T02:14:36;101662.66;;;0.85;70.42
41712;BME280;27399;51.516;13.670;2023-01-29T02:17:07;101663.66;;;1.05;70.01
41712;BME280;27399;51.516;13.670;2023-01-29T02:28:11;101680.91;;;0.65;71.11
41712;BME280;27399;51.516;13.670;2023-01-29T02:35:58;101672.50;;;0.89;70.80
41712;BME280;27399;51.516;13.670;2023-01-29T02:38:37;101681.78;;;0.82;71.20
41712;BME280;27399;51.516;13.670;2023-01-29T02:41:20;101680.91;;;0.82;71.24
41712;BME280;27399;51.516;13.670;2023-01-29T02:44:02;101678.56;;;0.88;71.03
41712;BME280;27399;51.516;13.670;2023-01-29T02:46:51;101680.22;;;0.86;70.70
41712;BME280;27399;51.516;13.670;2023-01-29T02:54:45;101675.06;;;0.87;70.85
41712;BME280;27399;51.516;13.670;2023-01-29T02:57:20;101676.47;;;0.81;70.96
41712;BME280;27399;51.516;13.670;2023-01-29T02:59:51;101669.56;;;0.83;70.47
41712;BME280;27399;51.516;13.670;2023-01-29T03:02:40;101668.19;;;0.73;70.55
41712;BME280;27399;51.516;13.670;2023-01-29T03:05:11;101668.47;;;0.61;71.26
41712;BME280;27399;51.516;13.670;2023-01-29T03:07:53;101659.91;;;0.65;70.87
41712;BME280;27399;51.516;13.670;2023-01-29T03:10:48;101652.69;;;0.61;71.20
41712;BME280;27399;51.516;13.670;2023-01-29T03:13:21;101650.38;;;0.67;71.26
41712;BME280;27399;51.516;13.670;2023-01-29T03:15:57;101650.31;;;0.49;71.40
41712;BME280;27399;51.516;13.670;2023-01-29T03:18:30;101659.19;;;0.51;71.07
41712;BME280;27399;51.516;13.670;2023-01-29T03:21:02;101653.34;;;0.73;71.11
41712;BME280;27399;51.516;13.670;2023-01-29T03:23:49;101645.47;;;0.57;70.96
41712;BME280;27399;51.516;13.670;2023-01-29T03:26:34;101643.41;;;0.68;71.17
41712;BME280;27399;51.516;13.670;2023-01-29T03:29:19;101640.34;;;0.76;71.36
41712;BME280;27399;51.516;13.670;2023-01-29T03:32:05;101646.78;;;0.65;71.25
41712;BME280;27399;51.516;13.670;2023-01-29T03:34:47;101653.34;;;0.73;72.40
41712;BME280;27399;51.516;13.670;2023-01-29T03:37:32;101645.25;;;0.87;72.12
41712;BME280;27399;51.516;13.670;2023-01-29T03:40:04;101642.31;;;0.81;71.78
41712;BME280;27399;51.516;13.670;2023-01-29T03:45:41;101640.38;;;0.95;71.05
41712;BME280;27399;51.516;13.670;2023-01-29T04:02:29;101623.22;;;1.01;71.74
41712;BME280;27399;51.516;13.670;2023-01-29T04:04:58;101632.34;;;1.10;70.81
41712;BME280;27399;51.516;13.670;2023-01-29T04:07:28;101634.38;;;0.97;71.16
41712;BME280;27399;51.516;13.670;2023-01-29T04:10:10;101601.91;;;0.60;70.88
41712;BME280;27399;51.516;13.670;2023-01-29T04:12:42;101626.16;;;0.73;71.41
41712;BME280;27399;51.516;13.670;2023-01-29T04:15:13;101624.13;;;0.67;71.89
41712;BME280;27399;51.516;13.670;2023-01-29T04:17:42;101624.09;;;0.84;71.46
41712;BME280;27399;51.516;13.670;2023-01-29T04:20:11;101619.97;;;0.54;71.45
41712;BME280;27399;51.516;13.670;2023-01-29T04:22:38;101616.22;;;0.84;71.41
41712;BME280;27399;51.516;13.670;2023-01-29T04:25:07;101611.38;;;0.75;71.64
41712;BME280;27399;51.516;13.670;2023-01-29T04:40:53;101597.59;;;0.79;71.36
41712;BME280;27399;51.516;13.670;2023-01-29T04:43:29;101579.19;;;0.61;71.51
41712;BME280;27399;51.516;13.670;2023-01-29T04:46:14;101577.03;;;0.36;72.48
41712;BME280;27399;51.516;13.670;2023-01-29T04:48:59;101564.16;;;0.40;72.03
41712;BME280;27399;51.516;13.670;2023-01-29T04:54:27;101560.19;;;0.32;72.28
41712;BME280;27399;51.516;13.670;2023-01-29T04:57:18;101551.31;;;0.46;72.61
41712;BME280;27399;51.516;13.670;2023-01-29T05:00:12;101552.25;;;0.30;72.96
41712;BME280;27399;51.516;13.670;2023-01-29T05:02:38;101543.88;;;0.38;72.90
41712;BME280;27399;51.516;13.670;2023-01-29T05:05:07;101547.53;;;0.23;73.04
41712;BME280;27399;51.516;13.670;2023-01-29T05:07:35;101549.69;;;0.32;72.81
41712;BME280;27399;51.516;13.670;2023-01-29T05:10:05;101550.03;;;0.38;72.75
41712;BME280;27399;51.516;13.670;2023-01-29T05:12:32;101550.19;;;0.41;72.28
41712;BME280;27399;51.516;13.670;2023-01-29T05:15:01;101548.22;;;0.03;73.51
41712;BME280;27399;51.516;13.670;2023-01-29T05:17:28;101542.50;;;0.28;73.39
41712;BME280;27399;51.516;13.670;2023-01-29T05:19:57;101540.53;;;0.24;73.15
41712;BME280;27399;51.516;13.670;2023-01-29T05:22:23;101541.56;;;-0.07;73.77
41712;BME280;27399;51.516;13.670;2023-01-29T05:24:49;101540.66;;;0.43;73.23
41712;BME280;27399;51.516;13.670;2023-01-29T05:27:18;101530.38;;;0.30;73.10
41712;BME280;27399;51.516;13.670;2023-01-29T05:30:03;101534.56;;;0.26;73.56
41712;BME280;27399;51.516;13.670;2023-01-29T05:32:29;101524.25;;;0.13;73.21
41712;BME280;27399;51.516;13.670;2023-01-29T05:34:55;101518.66;;;0.23;73.32
41712;BME280;27399;51.516;13.670;2023-01-29T05:37:20;101520.53;;;0.26;73.66
41712;BME280;27399;51.516;13.670;2023-01-29T05:39:46;101522.50;;;0.48;72.84
41712;BME280;27399;51.516;13.670;2023-01-29T05:42:11;101528.25;;;0.23;73.16
41712;BME280;27399;51.516;13.670;2023-01-29T05:44:37;101523.03;;;0.41;73.15
41712;BME280;27399;51.516;13.670;2023-01-29T05:47:03;101531.72;;;0.40;72.86
41712;BME280;27399;51.516;13.670;2023-01-29T05:49:28;101519.88;;;0.48;73.32
41712;BME280;27399;51.516;13.670;2023-01-29T05:51:54;101528.28;;;0.41;73.28
41712;BME280;27399;51.516;13.670;2023-01-29T05:54:20;101528.41;;;0.26;73.96
41712;BME280;27399;51.516;13.670;2023-01-29T05:56:45;101535.53;;;0.63;73.53
41712;BME280;27399;51.516;13.670;2023-01-29T05:59:11;101535.59;;;0.65;73.33
41712;BME280;27399;51.516;13.670;2023-01-29T06:01:37;101533.84;;;0.65;72.89
41712;BME280;27399;51.516;13.670;2023-01-29T06:04:03;101544.78;;;0.38;73.55
41712;BME280;27399;51.516;13.670;2023-01-29T06:06:29;101560.84;;;0.44;73.56
41712;BME280;27399;51.516;13.670;2023-01-29T06:08:55;101548.88;;;0.68;72.86
41712;BME280;27399;51.516;13.670;2023-01-29T06:11:21;101557.78;;;0.19;73.39
41712;BME280;27399;51.516;13.670;2023-01-29T06:13:46;101554.28;;;0.71;73.20
41712;BME280;27399;51.516;13.670;2023-01-29T06:16:13;101563.19;;;0.56;74.08
41712;BME280;27399;51.516;13.670;2023-01-29T06:18:40;101510.13;;;0.45;73.07
41712;BME280;27399;51.516;13.670;2023-01-29T06:21:08;101553.53;;;0.73;73.10
41712;BME280;27399;51.516;13.670;2023-01-29T06:23:34;101550.06;;;0.56;73.36
41712;BME280;27399;51.516;13.670;2023-01-29T06:26:03;101556.03;;;0.54;73.15
41712;BME280;27399;51.516;13.670;2023-01-29T06:28:29;101578.50;;;0.65;73.71
41712;BME280;27399;51.516;13.670;2023-01-29T06:31:00;101564.94;;;0.74;73.59
41712;BME280;27399;51.516;13.670;2023-01-29T06:33:26;101580.69;;;0.74;73.68
41712;BME280;27399;51.516;13.670;2023-01-29T06:35:59;101591.66;;;0.83;73.29
41712;BME280;27399;51.516;13.670;2023-01-29T06:38:25;101594.38;;;1.03;72.96
41712;BME280;27399;51.516;13.670;2023-01-29T06:40:52;101590.63;;;0.98;73.79
41712;BME280;27399;51.516;13.670;2023-01-29T06:43:18;101600.53;;;1.03;72.37
41712;BME280;27399;51.516;13.670;2023-01-29T06:45:48;101598.56;;;0.99;73.04
41712;BME280;27399;51.516;13.670;2023-01-29T06:48:15;101605.34;;;0.94;73.91
41712;BME280;27399;51.516;13.670;2023-01-29T06:50:40;101612.66;;;0.83;73.68
41712;BME280;27399;51.516;13.670;2023-01-29T06:53:06;101618.56;;;0.61;73.36
41712;BME280;27399;51.516;13.670;2023-01-29T06:55:31;101613.81;;;1.06;72.94
41712;BME280;27399;51.516;13.670;2023-01-29T06:57:57;101609.16;;;1.01;72.92
41712;BME280;27399;51.516;13.670;2023-01-29T07:00:23;101623.59;;;0.74;73.56
41712;BME280;27399;51.516;13.670;2023-01-29T07:02:48;101629.88;;;0.95;72.55
41712;BME280;27399;51.516;13.670;2023-01-29T07:05:14;101621.63;;;1.23;72.45
41712;BME280;27399;51.516;13.670;2023-01-29T07:07:40;101628.16;;;0.95;72.62
41712;BME280;27399;51.516;13.670;2023-01-29T07:10:06;101632.66;;;0.98;72.88
41712;BME280;27399;51.516;13.670;2023-01-29T07:12:31;101625.03;;;0.86;73.25
41712;BME280;27399;51.516;13.670;2023-01-29T07:14:57;101617.41;;;1.08;73.50
41712;BME280;27399;51.516;13.670;2023-01-29T07:17:23;101610.34;;;1.07;73.58
41712;BME280;27399;51.516;13.670;2023-01-29T07:19:48;101622.47;;;1.22;72.87
41712;BME280;27399;51.516;13.670;2023-01-29T07:22:14;101627.31;;;0.96;73.68
41712;BME280;27399;51.516;13.670;2023-01-29T07:24:40;101634.38;;;0.97;72.97
41712;BME280;27399;51.516;13.670;2023-01-29T07:27:06;101632.16;;;0.70;73.62
41712;BME280;27399;51.516;13.670;2023-01-29T07:29:32;101625.88;;;0.67;73.68
41712;BME280;27399;51.516;13.670;2023-01-29T07:31:57;101625.88;;;0.85;73.70
41712;BME280;27399;51.516;13.670;2023-01-29T07:34:23;101630.75;;;0.77;74.21
41712;BME280;27399;51.516;13.670;2023-01-29T07:36:52;101623.94;;;0.81;74.05
41712;BME280;27399;51.516;13.670;2023-01-29T07:39:17;101621.25;;;0.63;74.67
41712;BME280;27399;51.516;13.670;2023-01-29T07:41:43;101627.97;;;0.74;74.80
41712;BME280;27399;51.516;13.670;2023-01-29T07:44:09;101616.94;;;0.63;75.27
41712;BME280;27399;51.516;13.670;2023-01-29T07:46:34;101610.81;;;0.81;75.17
41712;BME280;27399;51.516;13.670;2023-01-29T07:49:00;101604.44;;;0.93;75.47
41712;BME280;27399;51.516;13.670;2023-01-29T07:51:26;101606.66;;;0.86;76.14
41712;BME280;27399;51.516;13.670;2023-01-29T07:53:51;101593.84;;;0.92;76.09
41712;BME280;27399;51.516;13.670;2023-01-29T07:56:17;101569.44;;;0.76;75.65
41712;BME280;27399;51.516;13.670;2023-01-29T07:58:43;101576.78;;;0.66;76.35
41712;BME280;27399;51.516;13.670;2023-01-29T08:01:08;101572.56;;;0.51;76.23
41712;BME280;27399;51.516;13.670;2023-01-29T08:03:34;101572.44;;;0.66;75.95
41712;BME280;27399;51.516;13.670;2023-01-29T08:06:00;101574.22;;;0.67;75.82
41712;BME280;27399;51.516;13.670;2023-01-29T08:08:26;101563.00;;;0.88;76.34
41712;BME280;27399;51.516;13.670;2023-01-29T08:10:52;101572.44;;;0.66;76.06
41712;BME280;27399;51.516;13.670;2023-01-29T08:13:18;101573.78;;;1.12;75.07
41712;BME280;27399;51.516;13.670;2023-01-29T08:15:44;101578.25;;;0.95;75.83
41712;BME280;27399;51.516;13.670;2023-01-29T08:18:11;101566.50;;;1.06;75.42
41712;BME280;27399;51.516;13.670;2023-01-29T08:20:37;101566.66;;;0.91;75.54
41712;BME280;27399;51.516;13.670;2023-01-29T08:23:05;101563.16;;;0.91;75.99
41712;BME280;27399;51.516;13.670;2023-01-29T08:25:31;101568.63;;;0.77;75.88
41712;BME280;27399;51.516;13.670;2023-01-29T08:27:58;101571.25;;;0.96;76.14
41712;BME280;27399;51.516;13.670;2023-01-29T08:30:26;101573.00;;;0.95;76.51
41712;BME280;27399;51.516;13.670;2023-01-29T08:32:52;101575.59;;;0.77;75.89
41712;BME280;27399;51.516;13.670;2023-01-29T08:35:18;101581.94;;;0.99;75.72
41712;BME280;27399;51.516;13.670;2023-01-29T08:37:51;101576.53;;;1.14;76.12
41712;BME280;27399;51.516;13.670;2023-01-29T08:40:17;101576.44;;;0.94;76.62
41712;BME280;27399;51.516;13.670;2023-01-29T08:42:43;101569.63;;;0.98;75.70
41712;BME280;27399;51.516;13.670;2023-01-29T08:45:09;101560.16;;;1.01;75.56
41712;BME280;27399;51.516;13.670;2023-01-29T08:47:35;101550.25;;;1.14;75.66
41712;BME280;27399;51.516;13.670;2023-01-29T08:50:00;101557.56;;;0.85;75.94
41712;BME280;27399;51.516;13.670;2023-01-29T08:52:26;101555.44;;;0.94;75.92
41712;BME280;27399;51.516;13.670;2023-01-29T08:54:51;101555.81;;;0.84;76.09
41712;BME280;27399;51.516;13.670;2023-01-29T08:57:17;101559.88;;;0.95;76.07
41712;BME280;27399;51.516;13.670;2023-01-29T08:59:43;101560.44;;;1.07;75.63
41712;BME280;27399;51.516;13.670;2023-01-29T09:02:10;101547.00;;;1.01;75.87
41712;BME280;27399;51.516;13.670;2023-01-29T09:04:36;101535.63;;;0.83;75.97
41712;BME280;27399;51.516;13.670;2023-01-29T09:07:01;101537.19;;;0.79;76.38
41712;BME280;27399;51.516;13.670;2023-01-29T09:09:27;101544.97;;;0.77;75.85
41712;BME280;27399;51.516;13.670;2023-01-29T09:11:52;101554.38;;;0.72;76.48
41712;BME280;27399;51.516;13.670;2023-01-29T09:14:18;101548.75;;;0.83;75.90
41712;BME280;27399;51.516;13.670;2023-01-29T09:16:44;101548.41;;;0.76;76.18
41712;BME280;27399;51.516;13.670;2023-01-29T09:19:09;101540.63;;;0.78;76.33
41712;BME280;27399;51.516;13.670;2023-01-29T09:21:35;101552.31;;;0.85;76.88
41712;BME280;27399;51.516;13.670;2023-01-29T09:24:01;101549.25;;;1.12;75.74
41712;BME280;27399;51.516;13.670;2023-01-29T09:26:26;101544.22;;;1.16;75.70
41712;BME280;27399;51.516;13.670;2023-01-29T09:28:52;101543.25;;;0.96;75.63
41712;BME280;27399;51.516;13.670;2023-01-29T09:31:17;101536.41;;;1.18;75.17
41712;BME280;27399;51.516;13.670;2023-01-29T09:33:43;101519.59;;;0.96;75.49
41712;BME280;27399;51.516;13.670;2023-01-29T09:36:08;101522.44;;;1.19;75.28
41712;BME280;27399;51.516;13.670;2023-01-29T09:38:34;101522.44;;;1.19;75.83
41712;BME280;27399;51.516;13.670;2023-01-29T09:41:19;101525.00;;;1.17;75.57
41712;BME280;27399;51.516;13.670;2023-01-29T09:43:52;101538.13;;;1.35;75.51
41712;BME280;27399;51.516;13.670;2023-01-29T09:46:40;101534.59;;;1.17;75.35
41712;BME280;27399;51.516;13.670;2023-01-29T09:49:47;101542.56;;;1.18;75.88
41712;BME280;27399;51.516;13.670;2023-01-29T09:52:29;101547.13;;;1.22;75.33
41712;BME280;27399;51.516;13.670;2023-01-29T09:55:19;101548.19;;;1.26;75.12
41712;BME280;27399;51.516;13.670;2023-01-29T09:57:53;101535.31;;;1.50;75.58
41712;BME280;27399;51.516;13.670;2023-01-29T10:00:41;101529.81;;;1.26;75.04
41712;BME280;27399;51.516;13.670;2023-01-29T10:11:45;101525.09;;;1.38;75.61
41712;BME280;27399;51.516;13.670;2023-01-29T10:25:09;101508.84;;;1.47;78.38
41712;BME280;27399;51.516;13.670;2023-01-29T10:27:40;101504.63;;;1.31;78.65
41712;BME280;27399;51.516;13.670;2023-01-29T10:30:25;101498.69;;;1.35;79.29
41712;BME280;27399;51.516;13.670;2023-01-29T10:32:53;101506.00;;;1.43;79.09
41712;BME280;27399;51.516;13.670;2023-01-29T10:35:33;101503.69;;;1.11;79.89
41712;BME280;27399;51.516;13.670;2023-01-29T10:38:27;101487.75;;;1.26;80.05
41712;BME280;27399;51.516;13.670;2023-01-29T10:46:59;101473.91;;;0.92;80.15
41712;BME280;27399;51.516;13.670;2023-01-29T10:49:40;101468.47;;;1.07;80.58
41712;BME280;27399;51.516;13.670;2023-01-29T10:52:50;101465.19;;;0.93;80.80
41712;BME280;27399;51.516;13.670;2023-01-29T10:55:42;101382.09;;;0.76;80.30
41712;BME280;27399;51.516;13.670;2023-01-29T10:58:29;101449.00;;;1.22;80.65
41712;BME280;27399;51.516;13.670;2023-01-29T11:00:55;101457.56;;;1.18;80.97
41712;BME280;27399;51.516;13.670;2023-01-29T11:03:34;101450.09;;;1.27;81.25
41712;BME280;27399;51.516;13.670;2023-01-29T11:06:19;101439.50;;;1.06;81.28
41712;BME280;27399;51.516;13.670;2023-01-29T11:08:52;101426.75;;;1.33;80.66
41712;BME280;27399;51.516;13.670;2023-01-29T11:14:03;101423.25;;;0.95;81.36
41712;BME280;27399;51.516;13.670;2023-01-29T11:16:39;101425.53;;;0.69;81.70
41712;BME280;27399;51.516;13.670;2023-01-29T11:19:05;101418.88;;;0.96;81.75
41712;BME280;27399;51.516;13.670;2023-01-29T11:21:31;101415.06;;;0.89;81.35
41712;BME280;27399;51.516;13.670;2023-01-29T11:24:10;101417.03;;;0.93;80.60
41712;BME280;27399;51.516;13.670;2023-01-29T11:26:39;101426.97;;;1.00;80.98
41712;BME280;27399;51.516;13.670;2023-01-29T11:29:32;101442.28;;;1.09;80.58
41712;BME280;27399;51.516;13.670;2023-01-29T11:32:00;101434.22;;;1.44;79.61
41712;BME280;27399;51.516;13.670;2023-01-29T11:34:28;101430.81;;;1.27;80.04
41712;BME280;27399;51.516;13.670;2023-01-29T11:37:03;101417.66;;;1.07;79.73
41712;BME280;27399;51.516;13.670;2023-01-29T11:39:32;101410.66;;;1.27;79.19
41712;BME280;27399;51.516;13.670;2023-01-29T11:42:02;101409.16;;;1.32;78.39
41712;BME280;27399;51.516;13.670;2023-01-29T11:44:33;101387.09;;;1.29;78.37
41712;BME280;27399;51.516;13.670;2023-01-29T11:47:21;101346.53;;;1.43;77.95
41712;BME280;27399;51.516;13.670;2023-01-29T11:49:52;101373.41;;;1.36;77.77
41712;BME280;27399;51.516;13.670;2023-01-29T11:52:22;101367.16;;;1.34;77.85
41712;BME280;27399;51.516;13.670;2023-01-29T11:54:49;101357.78;;;1.60;77.55
41712;BME280;27399;51.516;13.670;2023-01-29T11:57:35;101353.44;;;1.61;76.83
41712;BME280;27399;51.516;13.670;2023-01-29T12:03:06;101350.84;;;1.41;77.55
41712;BME280;27399;51.516;13.670;2023-01-29T12:05:37;101348.34;;;1.44;77.50
41712;BME280;27399;51.516;13.670;2023-01-29T12:08:14;101357.69;;;1.57;77.52
41712;BME280;27399;51.516;13.670;2023-01-29T12:10:42;101350.22;;;1.47;76.68
41712;BME280;27399;51.516;13.670;2023-01-29T12:15:45;101345.81;;;1.67;77.58
41712;BME280;27399;51.516;13.670;2023-01-29T12:18:25;101342.03;;;1.81;77.02
41712;BME280;27399;51.516;13.670;2023-01-29T12:21:01;101341.66;;;1.72;76.86
41712;BME280;27399;51.516;13.670;2023-01-29T12:26:17;101334.56;;;1.92;76.57
41712;BME280;27399;51.516;13.670;2023-01-29T12:31:50;101332.78;;;1.91;76.76
41712;BME280;27399;51.516;13.670;2023-01-29T12:34:43;101329.44;;;1.95;76.44
41712;BME280;27399;51.516;13.670;2023-01-29T12:37:24;101345.88;;;1.90;76.36
41712;BME280;27399;51.516;13.670;2023-01-29T12:39:53;101333.06;;;1.97;77.25
41712;BME280;27399;51.516;13.670;2023-01-29T12:42:21;101333.94;;;1.98;77.09
41712;BME280;27399;51.516;13.670;2023-01-29T12:45:07;101328.91;;;2.25;75.22
41712;BME280;27399;51.516;13.670;2023-01-29T12:47:37;101328.16;;;2.07;76.06
41712;BME280;27399;51.516;13.670;2023-01-29T12:50:18;101335.63;;;2.19;75.71
41712;BME280;27399;51.516;13.670;2023-01-29T12:52:55;101317.50;;;2.04;75.78
41712;BME280;27399;51.516;13.670;2023-01-29T12:55:30;101302.63;;;2.04;75.28
41712;BME280;27399;51.516;13.670;2023-01-29T12:57:59;101299.34;;;2.10;75.71
41712;BME280;27399;51.516;13.670;2023-01-29T13:00:35;101302.69;;;2.28;75.65
41712;BME280;27399;51.516;13.670;2023-01-29T13:03:16;101304.38;;;2.26;75.23
41712;BME280;27399;51.516;13.670;2023-01-29T13:12:27;101306.16;;;2.27;74.92
41712;BME280;27399;51.516;13.670;2023-01-29T13:15:27;101296.78;;;2.34;75.21
41712;BME280;27399;51.516;13.670;2023-01-29T13:17:57;101300.78;;;2.47;74.83
41712;BME280;27399;51.516;13.670;2023-01-29T13:20:27;101300.41;;;2.15;75.04
41712;BME280;27399;51.516;13.670;2023-01-29T13:22:57;101300.91;;;2.50;74.92
41712;BME280;27399;51.516;13.670;2023-01-29T13:25:24;101291.88;;;2.43;74.75
41712;BME280;27399;51.516;13.670;2023-01-29T13:27:50;101270.50;;;2.58;74.46
41712;BME280;27399;51.516;13.670;2023-01-29T13:30:29;101268.03;;;2.40;74.57
41712;BME280;27399;51.516;13.670;2023-01-29T13:32:58;101279.00;;;2.28;74.97
41712;BME280;27399;51.516;13.670;2023-01-29T13:35:38;101273.78;;;2.30;75.23
41712;BME280;27399;51.516;13.670;2023-01-29T13:38:05;101273.75;;;2.28;74.89
41712;BME280;27399;51.516;13.670;2023-01-29T13:40:48;101255.78;;;2.41;74.31
41712;BME280;27399;51.516;13.670;2023-01-29T13:43:21;101253.00;;;2.60;74.29
41712;BME280;27399;51.516;13.670;2023-01-29T13:45:50;101258.97;;;2.32;75.12
41712;BME280;27399;51.516;13.670;2023-01-29T13:48:26;101256.94;;;2.25;75.02
41712;BME280;27399;51.516;13.670;2023-01-29T13:50:59;101260.88;;;2.13;75.37
41712;BME280;27399;51.516;13.670;2023-01-29T13:53:28;101247.88;;;1.95;75.22
41712;BME280;27399;51.516;13.670;2023-01-29T13:59:05;101254.22;;;2.23;75.18
41712;BME280;27399;51.516;13.670;2023-01-29T14:06:48;101247.53;;;2.09;75.35
41712;BME280;27399;51.516;13.670;2023-01-29T14:17:13;101261.16;;;2.44;75.12
41712;BME280;27399;51.516;13.670;2023-01-29T14:19:50;101262.13;;;2.23;75.88
41712;BME280;27399;51.516;13.670;2023-01-29T14:22:21;101256.00;;;2.47;75.22
41712;BME280;27399;51.516;13.670;2023-01-29T14:24:53;101252.84;;;2.33;75.76
41712;BME280;27399;51.516;13.670;2023-01-29T14:27:21;101258.75;;;2.73;75.11
41712;BME280;27399;51.516;13.670;2023-01-29T14:29:50;101261.53;;;2.53;75.48
41712;BME280;27399;51.516;13.670;2023-01-29T14:32:22;101246.94;;;2.87;75.17
41712;BME280;27399;51.516;13.670;2023-01-29T14:35:18;101247.16;;;2.45;76.27
41712;BME280;27399;51.516;13.670;2023-01-29T14:37:47;101254.81;;;2.61;75.43
41712;BME280;27399;51.516;13.670;2023-01-29T14:43:06;101256.25;;;2.53;75.57
41712;BME280;27399;51.516;13.670;2023-01-29T14:45:37;101251.69;;;2.72;75.09
41712;BME280;27399;51.516;13.670;2023-01-29T14:53:23;101247.88;;;2.88;74.85
41712;BME280;27399;51.516;13.670;2023-01-29T14:56:04;101253.22;;;2.67;74.99
41712;BME280;27399;51.516;13.670;2023-01-29T14:58:48;101241.91;;;2.93;75.04
41712;BME280;27399;51.516;13.670;2023-01-29T15:01:21;101236.66;;;2.69;75.00
41712;BME280;27399;51.516;13.670;2023-01-29T15:04:10;101240.50;;;2.55;75.69
41712;BME280;27399;51.516;13.670;2023-01-29T15:06:51;101203.66;;;2.81;74.71
41712;BME280;27399;51.516;13.670;2023-01-29T15:09:22;101230.16;;;2.59;75.47
41712;BME280;27399;51.516;13.670;2023-01-29T15:12:50;101230.84;;;2.55;75.52
41712;BME280;27399;51.516;13.670;2023-01-29T15:17:26;101229.69;;;2.47;74.85
41712;BME280;27399;51.516;13.670;2023-01-29T15:19:53;101219.44;;;2.55;75.27
41712;BME280;27399;51.516;13.670;2023-01-29T15:22:20;101220.19;;;2.75;75.79